Terminal Aerodrome Forecast
Issued by NWS

Current Version | Previous Version | Text Only | Print | Product List | Glossary On
Versions: 1 2 3 4 5 6 7 8 9 10 11 12
000
FTUS43 KFGF 250500
TAFDVL
TAF
KDVL 250520Z 2506/2606 10012KT P6SM OVC020
     FM250900 10011KT P6SM OVC015
     FM251800 11013KT P6SM OVC020
      AMD LTD TO CLD VIS AND WIND=

USA.gov is the U.S. government's official web portal to all federal, state and local government web resources and services.